sensor_id;sensor_type;location;lat;lon;timestamp;pressure;altitude;pressure_sealevel;temperature;humidity
33496;BME280;19836;55.812;37.560;2023-12-14T00:02:11;100279.69;;;-8.07;66.57
33496;BME280;19836;55.812;37.560;2023-12-14T00:04:36;100269.28;;;-8.07;66.30
33496;BME280;19836;55.812;37.560;2023-12-14T00:07:03;100278.13;;;-8.04;65.96
33496;BME280;19836;55.812;37.560;2023-12-14T00:09:29;100276.66;;;-7.99;66.41
33496;BME280;19836;55.812;37.560;2023-12-14T00:11:55;100261.72;;;-8.03;66.16
33496;BME280;19836;55.812;37.560;2023-12-14T00:14:21;100266.59;;;-8.09;66.12
33496;BME280;19836;55.812;37.560;2023-12-14T00:16:47;100271.00;;;-8.08;65.98
33496;BME280;19836;55.812;37.560;2023-12-14T00:19:13;100268.06;;;-8.14;65.87
33496;BME280;19836;55.812;37.560;2023-12-14T00:21:39;100270.75;;;-8.12;66.29
33496;BME280;19836;55.812;37.560;2023-12-14T00:24:05;100276.19;;;-8.08;65.68
33496;BME280;19836;55.812;37.560;2023-12-14T00:26:31;100273.53;;;-8.09;65.98
33496;BME280;19836;55.812;37.560;2023-12-14T00:28:57;100269.19;;;-8.09;66.22
33496;BME280;19836;55.812;37.560;2023-12-14T00:31:23;100268.06;;;-8.14;66.17
33496;BME280;19836;55.812;37.560;2023-12-14T00:33:49;100258.75;;;-8.10;65.74
33496;BME280;19836;55.812;37.560;2023-12-14T00:36:18;100259.94;;;-8.04;66.13
33496;BME280;19836;55.812;37.560;2023-12-14T00:38:45;100272.91;;;-8.04;66.25
33496;BME280;19836;55.812;37.560;2023-12-14T00:41:11;100263.34;;;-8.05;65.70
33496;BME280;19836;55.812;37.560;2023-12-14T00:43:37;100260.53;;;-8.09;65.88
33496;BME280;19836;55.812;37.560;2023-12-14T00:46:04;100261.34;;;-8.10;65.26
33496;BME280;19836;55.812;37.560;2023-12-14T00:48:30;100260.97;;;-8.18;65.90
33496;BME280;19836;55.812;37.560;2023-12-14T00:50:55;100263.94;;;-8.10;65.82
33496;BME280;19836;55.812;37.560;2023-12-14T00:53:21;100269.59;;;-8.01;65.82
33496;BME280;19836;55.812;37.560;2023-12-14T00:55:48;100274.22;;;-7.96;65.96
33496;BME280;19836;55.812;37.560;2023-12-14T00:58:14;100268.72;;;-8.02;65.96
33496;BME280;19836;55.812;37.560;2023-12-14T01:00:40;100265.13;;;-8.04;65.29
33496;BME280;19836;55.812;37.560;2023-12-14T01:03:06;100265.13;;;-8.04;65.64
33496;BME280;19836;55.812;37.560;2023-12-14T01:05:32;100257.84;;;-8.11;65.72
33496;BME280;19836;55.812;37.560;2023-12-14T01:07:58;100266.47;;;-8.12;65.87
33496;BME280;19836;55.812;37.560;2023-12-14T01:10:24;100267.66;;;-8.05;65.92
33496;BME280;19836;55.812;37.560;2023-12-14T01:12:50;100265.00;;;-8.07;65.33
33496;BME280;19836;55.812;37.560;2023-12-14T01:15:16;100266.59;;;-8.09;65.40
33496;BME280;19836;55.812;37.560;2023-12-14T01:17:42;100254.69;;;-8.05;65.78
33496;BME280;19836;55.812;37.560;2023-12-14T01:20:08;100265.47;;;-7.98;65.51
33496;BME280;19836;55.812;37.560;2023-12-14T01:22:34;100265.59;;;-7.95;65.64
33496;BME280;19836;55.812;37.560;2023-12-14T01:25:00;100268.84;;;-7.99;65.38
33496;BME280;19836;55.812;37.560;2023-12-14T01:27:27;100268.84;;;-7.99;65.87
33496;BME280;19836;55.812;37.560;2023-12-14T01:29:52;100265.69;;;-7.93;65.78
33496;BME280;19836;55.812;37.560;2023-12-14T01:32:19;100265.59;;;-7.95;65.30
33496;BME280;19836;55.812;37.560;2023-12-14T01:34:45;100273.09;;;-8.01;65.59
33496;BME280;19836;55.812;37.560;2023-12-14T01:37:11;100269.06;;;-8.12;65.45
33496;BME280;19836;55.812;37.560;2023-12-14T01:39:37;100262.13;;;-8.11;64.98
33496;BME280;19836;55.812;37.560;2023-12-14T01:42:03;100267.50;;;-8.08;65.65
33496;BME280;19836;55.812;37.560;2023-12-14T01:44:29;100278.41;;;-8.15;64.89
33496;BME280;19836;55.812;37.560;2023-12-14T01:46:54;100276.25;;;-8.24;65.45
33496;BME280;19836;55.812;37.560;2023-12-14T01:49:20;100273.81;;;-8.21;64.95
33496;BME280;19836;55.812;37.560;2023-12-14T01:51:47;100265.81;;;-8.08;64.99
33496;BME280;19836;55.812;37.560;2023-12-14T01:54:12;100267.06;;;-8.00;65.15
33496;BME280;19836;55.812;37.560;2023-12-14T01:56:38;100259.44;;;-7.97;65.22
33496;BME280;19836;55.812;37.560;2023-12-14T01:59:06;100259.56;;;-7.94;65.65
33496;BME280;19836;55.812;37.560;2023-12-14T02:03:58;100265.94;;;-8.05;65.17
33496;BME280;19836;55.812;37.560;2023-12-14T02:06:23;100264.25;;;-8.04;65.78
33496;BME280;19836;55.812;37.560;2023-12-14T02:08:49;100265.47;;;-7.98;65.23
33496;BME280;19836;55.812;37.560;2023-12-14T02:11:15;100263.81;;;-7.96;65.11
33496;BME280;19836;55.812;37.560;2023-12-14T02:13:42;100254.81;;;-8.02;65.47
33496;BME280;19836;55.812;37.560;2023-12-14T02:16:08;100259.63;;;-8.10;65.32
33496;BME280;19836;55.812;37.560;2023-12-14T02:18:34;100266.03;;;-8.21;65.14
33496;BME280;19836;55.812;37.560;2023-12-14T02:21:20;100255.06;;;-8.31;65.03
33496;BME280;19836;55.812;37.560;2023-12-14T02:23:46;100261.00;;;-8.34;65.33
33496;BME280;19836;55.812;37.560;2023-12-14T02:26:13;100258.97;;;-8.23;65.82
33496;BME280;19836;55.812;37.560;2023-12-14T02:28:39;100258.50;;;-8.15;65.94
33496;BME280;19836;55.812;37.560;2023-12-14T02:31:05;100252.66;;;-8.11;65.74
33496;BME280;19836;55.812;37.560;2023-12-14T02:33:31;100246.72;;;-8.08;65.98
33496;BME280;19836;55.812;37.560;2023-12-14T02:35:57;100254.06;;;-8.00;66.18
33496;BME280;19836;55.812;37.560;2023-12-14T02:38:23;100256.19;;;-7.93;66.02
33496;BME280;19836;55.812;37.560;2023-12-14T02:40:49;100256.22;;;-7.91;65.64
33496;BME280;19836;55.812;37.560;2023-12-14T02:43:19;100260.69;;;-7.89;66.41
33496;BME280;19836;55.812;37.560;2023-12-14T02:45:45;100263.97;;;-7.93;66.08
33496;BME280;19836;55.812;37.560;2023-12-14T02:48:11;100258.63;;;-7.96;66.11
33496;BME280;19836;55.812;37.560;2023-12-14T02:50:38;100264.63;;;-7.97;65.47
33496;BME280;19836;55.812;37.560;2023-12-14T02:53:04;100256.91;;;-7.95;65.58
33496;BME280;19836;55.812;37.560;2023-12-14T02:55:30;100261.88;;;-8.00;65.40
33496;BME280;19836;55.812;37.560;2023-12-14T02:57:56;100263.66;;;-7.99;66.01
33496;BME280;19836;55.812;37.560;2023-12-14T03:00:22;100265.13;;;-8.04;65.99
33496;BME280;19836;55.812;37.560;2023-12-14T03:17:28;100271.31;;;-8.02;65.78
33496;BME280;19836;55.812;37.560;2023-12-14T03:19:54;100270.50;;;-8.01;65.38
33496;BME280;19836;55.812;37.560;2023-12-14T03:22:21;100272.88;;;-8.05;65.65
33496;BME280;19836;55.812;37.560;2023-12-14T03:24:47;100270.31;;;-8.04;65.76
33496;BME280;19836;55.812;37.560;2023-12-14T03:35:30;100265.22;;;-8.02;65.74
33496;BME280;19836;55.812;37.560;2023-12-14T03:37:56;100256.84;;;-7.97;65.64
33496;BME280;19836;55.812;37.560;2023-12-14T03:40:22;100258.31;;;-8.02;65.51
33496;BME280;19836;55.812;37.560;2023-12-14T03:42:48;100271.66;;;-8.12;65.84
33496;BME280;19836;55.812;37.560;2023-12-14T03:45:14;100268.81;;;-8.16;65.41
33496;BME280;19836;55.812;37.560;2023-12-14T03:47:40;100264.50;;;-8.16;65.33
33496;BME280;19836;55.812;37.560;2023-12-14T03:50:06;100266.47;;;-8.12;65.86
33496;BME280;19836;55.812;37.560;2023-12-14T03:52:32;100246.63;;;-8.10;65.45
33496;BME280;19836;55.812;37.560;2023-12-14T03:54:59;100257.09;;;-8.08;65.46
33496;BME280;19836;55.812;37.560;2023-12-14T03:57:25;100259.63;;;-8.10;65.96
33496;BME280;19836;55.812;37.560;2023-12-14T03:59:51;100271.06;;;-8.06;65.79
33496;BME280;19836;55.812;37.560;2023-12-14T04:02:17;100266.69;;;-8.07;66.22
33496;BME280;19836;55.812;37.560;2023-12-14T04:04:43;100263.44;;;-8.03;66.37
33496;BME280;19836;55.812;37.560;2023-12-14T04:07:15;100256.97;;;-7.94;66.04
33496;BME280;19836;55.812;37.560;2023-12-14T04:09:46;100259.56;;;-7.94;65.73
33496;BME280;19836;55.812;37.560;2023-12-14T04:12:38;100259.19;;;-8.01;66.31
33496;BME280;19836;55.812;37.560;2023-12-14T04:15:10;100253.94;;;-8.20;66.09
33496;BME280;19836;55.812;37.560;2023-12-14T04:17:39;100253.06;;;-8.19;66.08
33496;BME280;19836;55.812;37.560;2023-12-14T04:20:06;100250.88;;;-8.12;66.10
33496;BME280;19836;55.812;37.560;2023-12-14T04:22:35;100241.81;;;-8.02;66.05
33496;BME280;19836;55.812;37.560;2023-12-14T04:25:09;100231.97;;;-7.92;65.93
33496;BME280;19836;55.812;37.560;2023-12-14T04:27:41;100243.03;;;-7.96;65.75
33496;BME280;19836;55.812;37.560;2023-12-14T04:30:25;100245.03;;;-8.08;65.74
33496;BME280;19836;55.812;37.560;2023-12-14T04:33:05;100247.44;;;-8.11;65.56
33496;BME280;19836;55.812;37.560;2023-12-14T04:35:38;100250.88;;;-8.12;65.30
33496;BME280;19836;55.812;37.560;2023-12-14T04:38:10;100248.28;;;-8.12;65.42
33496;BME280;19836;55.812;37.560;2023-12-14T04:40:45;100253.25;;;-7.99;65.41
33496;BME280;19836;55.812;37.560;2023-12-14T04:43:19;100245.63;;;-7.96;66.07
33496;BME280;19836;55.812;37.560;2023-12-14T04:45:45;100237.53;;;-8.02;65.77
33496;BME280;19836;55.812;37.560;2023-12-14T04:48:17;100246.53;;;-8.11;65.08
33496;BME280;19836;55.812;37.560;2023-12-14T04:50:47;100252.34;;;-8.17;65.78
33496;BME280;19836;55.812;37.560;2023-12-14T04:53:14;100253.31;;;-8.15;65.21
33496;BME280;19836;55.812;37.560;2023-12-14T04:55:40;100245.81;;;-8.09;65.65
33496;BME280;19836;55.812;37.560;2023-12-14T04:58:09;100251.16;;;-8.06;65.67
33496;BME280;19836;55.812;37.560;2023-12-14T05:00:38;100252.06;;;-8.05;65.46
33496;BME280;19836;55.812;37.560;2023-12-14T05:03:06;100259.94;;;-8.04;65.88
33496;BME280;19836;55.812;37.560;2023-12-14T05:05:35;100254.81;;;-8.02;66.01
33496;BME280;19836;55.812;37.560;2023-12-14T05:08:10;100255.72;;;-8.02;65.67
33496;BME280;19836;55.812;37.560;2023-12-14T05:10:37;100263.34;;;-8.05;65.30
33496;BME280;19836;55.812;37.560;2023-12-14T05:13:03;100257.84;;;-8.11;65.47
33496;BME280;19836;55.812;37.560;2023-12-14T05:15:30;100261.41;;;-8.09;65.73
33496;BME280;19836;55.812;37.560;2023-12-14T05:17:56;100261.88;;;-8.00;64.98
33496;BME280;19836;55.812;37.560;2023-12-14T05:20:22;100258.44;;;-7.99;65.72
33496;BME280;19836;55.812;37.560;2023-12-14T05:22:48;100265.81;;;-8.08;65.38
33496;BME280;19836;55.812;37.560;2023-12-14T05:25:15;100262.13;;;-8.11;65.02
33496;BME280;19836;55.812;37.560;2023-12-14T05:27:41;100269.94;;;-8.11;65.58
33496;BME280;19836;55.812;37.560;2023-12-14T05:30:07;100263.94;;;-8.10;64.98
33496;BME280;19836;55.812;37.560;2023-12-14T05:32:34;100263.88;;;-8.12;65.22
33496;BME280;19836;55.812;37.560;2023-12-14T05:35:00;100273.59;;;-8.08;65.08
33496;BME280;19836;55.812;37.560;2023-12-14T05:37:26;100274.56;;;-8.06;64.81
33496;BME280;19836;55.812;37.560;2023-12-14T05:39:53;100264.81;;;-8.10;64.50
33496;BME280;19836;55.812;37.560;2023-12-14T05:42:20;100269.66;;;-8.00;65.60
33496;BME280;19836;55.812;37.560;2023-12-14T05:44:46;100272.91;;;-7.88;65.38
33496;BME280;19836;55.812;37.560;2023-12-14T05:47:13;100262.06;;;-7.79;64.78
33496;BME280;19836;55.812;37.560;2023-12-14T05:50:07;100266.81;;;-7.71;65.42
33496;BME280;19836;55.812;37.560;2023-12-14T05:52:41;100265.19;;;-7.69;65.27
33496;BME280;19836;55.812;37.560;2023-12-14T05:55:09;100263.41;;;-7.70;65.51
33496;BME280;19836;55.812;37.560;2023-12-14T05:57:36;100262.66;;;-7.67;64.94
33496;BME280;19836;55.812;37.560;2023-12-14T06:00:13;100266.22;;;-7.65;65.18
33496;BME280;19836;55.812;37.560;2023-12-14T06:02:48;100267.78;;;-7.69;64.88
33496;BME280;19836;55.812;37.560;2023-12-14T06:05:15;100268.13;;;-7.79;64.96
33496;BME280;19836;55.812;37.560;2023-12-14T06:07:41;100266.81;;;-7.88;64.63
33496;BME280;19836;55.812;37.560;2023-12-14T06:10:07;100259.94;;;-7.86;65.08
33496;BME280;19836;55.812;37.560;2023-12-14T06:12:34;100259.16;;;-7.85;64.58
33496;BME280;19836;55.812;37.560;2023-12-14T06:15:01;100258.72;;;-7.77;64.96
33496;BME280;19836;55.812;37.560;2023-12-14T06:17:30;100263.59;;;-7.65;65.01
33496;BME280;19836;55.812;37.560;2023-12-14T06:19:57;100265.19;;;-7.69;64.70
33496;BME280;19836;55.812;37.560;2023-12-14T06:22:24;100287.78;;;-7.68;64.73
33496;BME280;19836;55.812;37.560;2023-12-14T06:24:53;100260.25;;;-7.63;64.87
33496;BME280;19836;55.812;37.560;2023-12-14T06:27:19;100257.81;;;-7.60;65.08
33496;BME280;19836;55.812;37.560;2023-12-14T06:29:48;100259.91;;;-7.53;64.57
33496;BME280;19836;55.812;37.560;2023-12-14T06:32:18;100263.47;;;-7.51;64.52
33496;BME280;19836;55.812;37.560;2023-12-14T06:34:50;100267.41;;;-7.59;64.59
33496;BME280;19836;55.812;37.560;2023-12-14T06:37:22;100271.13;;;-7.54;64.45
33496;BME280;19836;55.812;37.560;2023-12-14T07:18:00;100264.66;;;-6.90;64.43
33496;BME280;19836;55.812;37.560;2023-12-14T07:20:43;100265.56;;;-6.90;64.63
33496;BME280;19836;55.812;37.560;2023-12-14T07:38:47;100301.47;;;-7.37;63.84
33496;BME280;19836;55.812;37.560;2023-12-14T07:41:14;100296.78;;;-7.44;63.48
33496;BME280;19836;55.812;37.560;2023-12-14T07:43:40;100281.91;;;-7.46;63.63
33496;BME280;19836;55.812;37.560;2023-12-14T07:46:06;100279.84;;;-7.36;64.13
33496;BME280;19836;55.812;37.560;2023-12-14T07:48:41;100281.41;;;-7.22;63.81
33496;BME280;19836;55.812;37.560;2023-12-14T07:51:13;100290.59;;;-7.11;63.89
33496;BME280;19836;55.812;37.560;2023-12-14T07:54:40;100289.88;;;-7.26;63.82
33496;BME280;19836;55.812;37.560;2023-12-14T08:15:13;100319.22;;;-7.46;63.57
33496;BME280;19836;55.812;37.560;2023-12-14T08:17:39;100314.53;;;-7.53;63.64
33496;BME280;19836;55.812;37.560;2023-12-14T08:20:05;100311.13;;;-7.52;63.49
33496;BME280;19836;55.812;37.560;2023-12-14T08:22:35;100311.72;;;-7.40;64.40
33496;BME280;19836;55.812;37.560;2023-12-14T08:25:01;100309.41;;;-7.34;64.00
33496;BME280;19836;55.812;37.560;2023-12-14T08:27:29;100300.28;;;-7.26;64.15
33496;BME280;19836;55.812;37.560;2023-12-14T08:29:55;100300.78;;;-7.15;63.93
33496;BME280;19836;55.812;37.560;2023-12-14T08:32:22;100295.94;;;-7.08;64.21
33496;BME280;19836;55.812;37.560;2023-12-14T08:34:48;100296.63;;;-7.12;64.29
33496;BME280;19836;55.812;37.560;2023-12-14T08:37:13;100295.66;;;-7.14;64.04
33496;BME280;19836;55.812;37.560;2023-12-14T08:39:39;100310.44;;;-7.13;63.75
33496;BME280;19836;55.812;37.560;2023-12-14T08:42:06;100316.47;;;-7.14;64.19
33496;BME280;19836;55.812;37.560;2023-12-14T08:44:31;100302.22;;;-7.22;63.67
33496;BME280;19836;55.812;37.560;2023-12-14T08:46:57;100311.94;;;-7.18;63.71
33496;BME280;19836;55.812;37.560;2023-12-14T08:49:24;100311.06;;;-7.18;63.72
33496;BME280;19836;55.812;37.560;2023-12-14T08:51:50;100310.97;;;-7.20;63.92
33496;BME280;19836;55.812;37.560;2023-12-14T08:54:16;100302.22;;;-7.22;64.12
33496;BME280;19836;55.812;37.560;2023-12-14T08:56:43;100295.66;;;-7.14;64.11
33496;BME280;19836;55.812;37.560;2023-12-14T08:59:09;100295.94;;;-7.08;64.19
33496;BME280;19836;55.812;37.560;2023-12-14T09:01:35;100301.44;;;-7.02;63.73
33496;BME280;19836;55.812;37.560;2023-12-14T09:04:01;100308.19;;;-7.05;63.61
33496;BME280;19836;55.812;37.560;2023-12-14T09:06:27;100302.13;;;-7.06;63.83
33496;BME280;19836;55.812;37.560;2023-12-14T09:08:54;100293.63;;;-7.02;64.05
33496;BME280;19836;55.812;37.560;2023-12-14T09:11:20;100292.53;;;-7.07;63.76
33496;BME280;19836;55.812;37.560;2023-12-14T09:13:46;100282.88;;;-7.09;63.46
33496;BME280;19836;55.812;37.560;2023-12-14T09:16:12;100288.28;;;-7.05;63.73
33496;BME280;19836;55.812;37.560;2023-12-14T09:18:38;100283.22;;;-7.02;63.80
33496;BME280;19836;55.812;37.560;2023-12-14T09:21:05;100271.38;;;-6.95;64.12
33496;BME280;19836;55.812;37.560;2023-12-14T09:23:31;100268.56;;;-7.00;63.44
33496;BME280;19836;55.812;37.560;2023-12-14T09:25:57;100270.34;;;-6.99;64.06
33496;BME280;19836;55.812;37.560;2023-12-14T09:28:25;100271.66;;;-6.89;63.69
33496;BME280;19836;55.812;37.560;2023-12-14T09:30:52;100274.75;;;-6.79;64.33
33496;BME280;19836;55.812;37.560;2023-12-14T09:33:18;100274.22;;;-6.72;63.57
33496;BME280;19836;55.812;37.560;2023-12-14T09:35:44;100285.44;;;-6.73;64.11
33496;BME280;19836;55.812;37.560;2023-12-14T09:38:10;100284.56;;;-6.73;63.81
33496;BME280;19836;55.812;37.560;2023-12-14T09:40:39;100282.84;;;-6.73;64.14
33496;BME280;19836;55.812;37.560;2023-12-14T09:43:05;100294.44;;;-6.66;63.71
33496;BME280;19836;55.812;37.560;2023-12-14T09:45:33;100303.44;;;-6.60;64.13
33496;BME280;19836;55.812;37.560;2023-12-14T09:48:00;100305.22;;;-6.59;64.02
33496;BME280;19836;55.812;37.560;2023-12-14T09:50:26;100291.34;;;-6.58;64.51
33496;BME280;19836;55.812;37.560;2023-12-14T09:52:53;100291.66;;;-6.52;64.00
33496;BME280;19836;55.812;37.560;2023-12-14T09:55:24;100295.47;;;-6.44;64.50
33496;BME280;19836;55.812;37.560;2023-12-14T09:57:50;100293.16;;;-6.38;64.37
33496;BME280;19836;55.812;37.560;2023-12-14T10:00:35;100295.41;;;-6.26;64.70
33496;BME280;19836;55.812;37.560;2023-12-14T10:03:22;100308.78;;;-6.19;64.37
33496;BME280;19836;55.812;37.560;2023-12-14T10:05:50;100304.41;;;-6.39;64.14
33496;BME280;19836;55.812;37.560;2023-12-14T10:08:16;100305.22;;;-6.59;63.81
33496;BME280;19836;55.812;37.560;2023-12-14T10:10:43;100306.59;;;-6.67;64.05
33496;BME280;19836;55.812;37.560;2023-12-14T10:13:09;100304.66;;;-6.71;63.50
33496;BME280;19836;55.812;37.560;2023-12-14T10:15:47;100308.28;;;-6.67;63.65
33496;BME280;19836;55.812;37.560;2023-12-14T10:18:23;100296.28;;;-6.64;63.73
33496;BME280;19836;55.812;37.560;2023-12-14T10:20:50;100289.47;;;-6.62;63.43
33496;BME280;19836;55.812;37.560;2023-12-14T10:23:17;100288.63;;;-6.61;63.56
33496;BME280;19836;55.812;37.560;2023-12-14T10:25:44;100288.72;;;-6.59;63.36
33496;BME280;19836;55.812;37.560;2023-12-14T10:28:14;100282.09;;;-6.51;63.75
33496;BME280;19836;55.812;37.560;2023-12-14T10:30:41;100290.28;;;-6.44;63.85
33496;BME280;19836;55.812;37.560;2023-12-14T10:33:07;100285.06;;;-6.44;63.29
33496;BME280;19836;55.812;37.560;2023-12-14T10:35:34;100283.75;;;-6.53;63.59
33496;BME280;19836;55.812;37.560;2023-12-14T10:38:03;100283.75;;;-6.53;63.18
33496;BME280;19836;55.812;37.560;2023-12-14T10:40:31;100285.97;;;-6.43;63.52
33496;BME280;19836;55.812;37.560;2023-12-14T10:43:02;100266.31;;;-6.35;63.67
33496;BME280;19836;55.812;37.560;2023-12-14T10:45:32;100260.78;;;-6.43;63.22
33496;BME280;19836;55.812;37.560;2023-12-14T10:47:59;100263.38;;;-6.43;62.88
33496;BME280;19836;55.812;37.560;2023-12-14T10:50:29;100256.66;;;-6.38;63.27
33496;BME280;19836;55.812;37.560;2023-12-14T10:52:57;100261.59;;;-6.25;63.25
33496;BME280;19836;55.812;37.560;2023-12-14T10:55:51;100257.72;;;-6.14;63.54
33496;BME280;19836;55.812;37.560;2023-12-14T10:58:19;100243.19;;;-6.09;63.21
33496;BME280;19836;55.812;37.560;2023-12-14T11:00:59;100244.94;;;-6.08;63.12
33496;BME280;19836;55.812;37.560;2023-12-14T11:03:33;100237.34;;;-6.03;63.18
33496;BME280;19836;55.812;37.560;2023-12-14T11:06:00;100239.88;;;-6.05;63.20
33496;BME280;19836;55.812;37.560;2023-12-14T11:08:26;100233.72;;;-6.07;63.31
33496;BME280;19836;55.812;37.560;2023-12-14T11:10:53;100230.03;;;-6.12;63.48
33496;BME280;19836;55.812;37.560;2023-12-14T11:13:23;100229.19;;;-6.11;63.84
33496;BME280;19836;55.812;37.560;2023-12-14T11:15:51;100229.44;;;-6.05;63.45
33496;BME280;19836;55.812;37.560;2023-12-14T11:21:00;100222.56;;;-6.23;63.56
33496;BME280;19836;55.812;37.560;2023-12-14T11:23:29;100223.44;;;-6.23;63.96
33496;BME280;19836;55.812;37.560;2023-12-14T11:26:02;100224.50;;;-6.19;63.77
33496;BME280;19836;55.812;37.560;2023-12-14T11:28:39;100233.88;;;-6.23;63.52
33496;BME280;19836;55.812;37.560;2023-12-14T11:31:12;100238.56;;;-6.35;63.86
33496;BME280;19836;55.812;37.560;2023-12-14T11:33:38;100229.78;;;-6.37;63.63
33496;BME280;19836;55.812;37.560;2023-12-14T11:36:05;100223.94;;;-6.31;64.04
33496;BME280;19836;55.812;37.560;2023-12-14T11:38:32;100233.81;;;-6.24;64.15
33496;BME280;19836;55.812;37.560;2023-12-14T11:41:01;100227.03;;;-6.21;63.94
33496;BME280;19836;55.812;37.560;2023-12-14T11:43:27;100234.84;;;-6.21;63.75
33496;BME280;19836;55.812;37.560;2023-12-14T11:45:53;100233.88;;;-6.23;64.02
33496;BME280;19836;55.812;37.560;2023-12-14T11:48:21;100234.50;;;-6.28;63.63
33496;BME280;19836;55.812;37.560;2023-12-14T11:50:48;100232.91;;;-6.25;63.52
33496;BME280;19836;55.812;37.560;2023-12-14T11:53:14;100238.22;;;-6.23;63.98
33496;BME280;19836;55.812;37.560;2023-12-14T11:55:42;100239.06;;;-6.23;63.59
33496;BME280;19836;55.812;37.560;2023-12-14T11:58:12;100238.47;;;-6.17;64.17
33496;BME280;19836;55.812;37.560;2023-12-14T12:00:39;100234.41;;;-6.11;63.91
33496;BME280;19836;55.812;37.560;2023-12-14T12:03:12;100249.03;;;-6.14;63.97
33496;BME280;19836;55.812;37.560;2023-12-14T12:05:46;100256.38;;;-6.25;63.91
33496;BME280;19836;55.812;37.560;2023-12-14T12:08:14;100252.69;;;-6.30;63.64
33496;BME280;19836;55.812;37.560;2023-12-14T12:10:42;100245.28;;;-6.40;63.75
33496;BME280;19836;55.812;37.560;2023-12-14T12:13:19;100251.25;;;-6.42;63.65
33496;BME280;19836;55.812;37.560;2023-12-14T12:15:46;100255.72;;;-6.40;63.92
33496;BME280;19836;55.812;37.560;2023-12-14T12:18:15;100257.00;;;-6.30;64.02
33496;BME280;19836;55.812;37.560;2023-12-14T12:20:42;100262.63;;;-6.21;64.41
33496;BME280;19836;55.812;37.560;2023-12-14T12:23:08;100263.63;;;-6.18;63.91
33496;BME280;19836;55.812;37.560;2023-12-14T12:25:35;100255.56;;;-6.24;64.08
33496;BME280;19836;55.812;37.560;2023-12-14T12:28:02;100245.44;;;-6.37;63.99
33496;BME280;19836;55.812;37.560;2023-12-14T12:30:32;100244.38;;;-6.40;64.24
33496;BME280;19836;55.812;37.560;2023-12-14T12:32:58;100251.41;;;-6.39;63.64
33496;BME280;19836;55.812;37.560;2023-12-14T12:35:24;100254.06;;;-6.38;64.18
33496;BME280;19836;55.812;37.560;2023-12-14T12:37:56;100234.53;;;-6.47;63.94
33496;BME280;19836;55.812;37.560;2023-12-14T12:40:23;100249.66;;;-6.58;63.80
33496;BME280;19836;55.812;37.560;2023-12-14T12:42:51;100240.34;;;-6.53;63.94
33496;BME280;19836;55.812;37.560;2023-12-14T12:45:18;100234.44;;;-6.49;64.34
33496;BME280;19836;55.812;37.560;2023-12-14T12:47:44;100240.84;;;-6.42;64.23
33496;BME280;19836;55.812;37.560;2023-12-14T12:50:12;100243.38;;;-6.44;63.90
33496;BME280;19836;55.812;37.560;2023-12-14T12:52:38;100246.81;;;-6.45;63.93
33496;BME280;19836;55.812;37.560;2023-12-14T12:55:08;100246.22;;;-6.38;64.23
33496;BME280;19836;55.812;37.560;2023-12-14T12:57:35;100259.59;;;-6.30;64.26
33496;BME280;19836;55.812;37.560;2023-12-14T13:00:02;100258.66;;;-6.32;64.28
33496;BME280;19836;55.812;37.560;2023-12-14T13:02:30;100262.84;;;-6.36;64.17
33496;BME280;19836;55.812;37.560;2023-12-14T13:04:56;100260.94;;;-6.40;64.18
33496;BME280;19836;55.812;37.560;2023-12-14T13:07:23;100270.81;;;-6.52;64.01
33496;BME280;19836;55.812;37.560;2023-12-14T13:09:49;100261.91;;;-6.57;63.81
33496;BME280;19836;55.812;37.560;2023-12-14T13:12:15;100260.84;;;-6.60;63.95
33496;BME280;19836;55.812;37.560;2023-12-14T13:14:41;100260.81;;;-6.62;63.69
33496;BME280;19836;55.812;37.560;2023-12-14T13:17:07;100259.28;;;-6.57;64.04
33496;BME280;19836;55.812;37.560;2023-12-14T13:19:33;100262.69;;;-6.58;64.29
33496;BME280;19836;55.812;37.560;2023-12-14T13:22:00;100266.41;;;-6.53;64.25
33496;BME280;19836;55.812;37.560;2023-12-14T13:24:27;100267.91;;;-6.58;63.79
33496;BME280;19836;55.812;37.560;2023-12-14T13:26:53;100270.50;;;-6.58;64.02
33496;BME280;19836;55.812;37.560;2023-12-14T13:29:20;100260.84;;;-6.60;64.36
33496;BME280;19836;55.812;37.560;2023-12-14T13:31:47;100256.81;;;-6.54;64.05
33496;BME280;19836;55.812;37.560;2023-12-14T13:34:14;100264.09;;;-6.47;64.12
33496;BME280;19836;55.812;37.560;2023-12-14T13:36:40;100263.19;;;-6.47;64.25
33496;BME280;19836;55.812;37.560;2023-12-14T13:39:06;100258.13;;;-6.44;64.62
33496;BME280;19836;55.812;37.560;2023-12-14T13:41:32;100254.88;;;-6.39;64.21
33496;BME280;19836;55.812;37.560;2023-12-14T13:44:00;100249.56;;;-6.42;64.61
33496;BME280;19836;55.812;37.560;2023-12-14T13:46:28;100249.56;;;-6.42;64.52
33496;BME280;19836;55.812;37.560;2023-12-14T13:48:54;100247.75;;;-6.43;64.29
33496;BME280;19836;55.812;37.560;2023-12-14T13:51:20;100244.94;;;-6.47;64.05
33496;BME280;19836;55.812;37.560;2023-12-14T13:53:46;100244.88;;;-6.49;64.52
33496;BME280;19836;55.812;37.560;2023-12-14T13:56:12;100235.28;;;-6.50;64.27
33496;BME280;19836;55.812;37.560;2023-12-14T13:58:38;100235.84;;;-6.57;64.49
33496;BME280;19836;55.812;37.560;2023-12-14T14:01:05;100233.25;;;-6.57;64.22
33496;BME280;19836;55.812;37.560;2023-12-14T14:03:36;100236.13;;;-6.51;64.54
33496;BME280;19836;55.812;37.560;2023-12-14T14:06:07;100240.69;;;-6.45;64.45
33496;BME280;19836;55.812;37.560;2023-12-14T14:08:33;100238.22;;;-6.42;64.13
33496;BME280;19836;55.812;37.560;2023-12-14T14:10:59;100233.78;;;-6.45;63.99
33496;BME280;19836;55.812;37.560;2023-12-14T14:13:26;100231.31;;;-6.42;64.28
33496;BME280;19836;55.812;37.560;2023-12-14T14:15:52;100239.25;;;-6.39;64.25
33496;BME280;19836;55.812;37.560;2023-12-14T14:18:19;100238.41;;;-6.38;64.59
33496;BME280;19836;55.812;37.560;2023-12-14T14:20:46;100230.59;;;-6.38;64.00
33496;BME280;19836;55.812;37.560;2023-12-14T14:23:12;100236.56;;;-6.40;64.29
33496;BME280;19836;55.812;37.560;2023-12-14T14:25:38;100226.09;;;-6.42;64.28